Time;durP1;ratioP1;P1;durP2;ratioP2;P2;SDS_P1;SDS_P2;PMS_P1;PMS_P2;Temp;Humidity;BMP_temperature;BMP_pressure;BME280_temperature;BME280_humidity;BME280_pressure;Samples;Min_cycle;Max_cycle;Signal;HPM_P1;HPM_P2
2022/09/22 00:01:23;;;;;;;1.80;1.15;;;;;;;8.10;83.93;94845.47;5130543;27;20241;-72
2022/09/22 00:03:52;;;;;;;1.20;1.10;;;;;;;8.13;83.99;94854.88;5131022;27;20302;-72
2022/09/22 00:06:22;;;;;;;0.40;0.40;;;;;;;8.11;83.78;94851.69;5131623;27;20189;-73
2022/09/22 00:08:52;;;;;;;1.08;1.05;;;;;;;7.97;84.36;94848.22;5131537;27;20197;-72
2022/09/22 00:11:21;;;;;;;1.20;1.10;;;;;;;7.94;84.51;94846.16;5132094;27;20262;-73
2022/09/22 00:13:51;;;;;;;1.77;1.17;;;;;;;7.91;84.70;94846.78;5131026;27;20628;-72
2022/09/22 00:16:20;;;;;;;1.48;0.90;;;;;;;7.81;84.54;94837.78;5130107;27;20265;-72
2022/09/22 00:18:47;;;;;;;0.38;0.38;;;;;;;7.84;84.71;94842.59;5130910;27;20233;-72
2022/09/22 00:21:16;;;;;;;2.30;0.82;;;;;;;7.87;84.41;94845.78;5131192;27;20201;-72
2022/09/22 00:23:45;;;;;;;0.70;0.55;;;;;;;7.83;84.48;94841.00;5131676;27;20218;-73
2022/09/22 00:26:14;;;;;;;1.35;0.88;;;;;;;7.86;84.43;94844.97;5131371;27;20205;-75
2022/09/22 00:28:44;;;;;;;0.77;0.70;;;;;;;7.86;84.25;94842.28;5131589;27;20201;-73
2022/09/22 00:31:14;;;;;;;0.65;0.50;;;;;;;7.85;84.33;94844.19;5129926;27;20474;-73
2022/09/22 00:33:41;;;;;;;1.10;0.98;;;;;;;7.79;84.36;94840.00;5131716;27;20193;-72
2022/09/22 00:36:09;;;;;;;0.75;0.75;;;;;;;7.85;84.19;94849.56;5131630;27;20205;-73
2022/09/22 00:38:38;;;;;;;1.60;0.93;;;;;;;7.78;84.47;94846.53;5131250;27;20575;-71
2022/09/22 00:41:09;;;;;;;0.77;0.77;;;;;;;7.83;84.28;94846.38;5131222;27;20601;-74
2022/09/22 00:43:38;;;;;;;4.25;2.90;;;;;;;7.83;84.26;94849.09;5131431;27;20642;-71
2022/09/22 00:46:15;;;;;;;0.40;0.40;;;;;;;7.83;84.27;94851.78;5131040;27;20705;-75
2022/09/22 00:48:48;;;;;;;1.13;0.65;;;;;;;7.87;84.05;94845.78;5130606;27;20244;-71
2022/09/22 00:51:17;;;;;;;3.05;1.02;;;;;;;7.92;84.06;94853.75;5130743;27;20185;-73
2022/09/22 00:53:45;;;;;;;1.42;0.70;;;;;;;7.92;84.01;94853.75;5130774;27;20209;-71
2022/09/22 00:56:16;;;;;;;1.00;0.98;;;;;;;7.95;83.83;94842.34;5130417;27;20197;-72
2022/09/22 00:58:47;;;;;;;0.70;0.70;;;;;;;8.02;83.24;94842.72;5131661;27;20208;-72
2022/09/22 01:01:14;;;;;;;0.28;0.28;;;;;;;8.04;83.62;94837.84;5131465;27;20274;-73
2022/09/22 01:03:42;;;;;;;0.73;0.73;;;;;;;8.01;83.28;94836.53;5131948;27;20224;-72
2022/09/22 01:06:12;;;;;;;0.47;0.47;;;;;;;8.02;83.25;94831.94;5132000;27;20260;-72
2022/09/22 01:08:42;;;;;;;1.33;0.82;;;;;;;8.00;83.32;94834.16;5131812;27;20287;-73
2022/09/22 01:11:10;;;;;;;0.85;0.85;;;;;;;7.94;83.46;94836.16;5131617;27;20193;-73
2022/09/22 01:13:48;;;;;;;1.13;1.02;;;;;;;7.88;83.82;94837.38;5131887;27;20208;-72
2022/09/22 01:16:31;;;;;;;1.30;0.75;;;;;;;7.82;84.24;94834.00;5118231;27;20217;-72
2022/09/22 01:19:23;;;;;;;1.98;0.98;;;;;;;7.71;84.44;94837.25;5131163;27;20630;-73
2022/09/22 01:21:56;;;;;;;0.82;0.73;;;;;;;7.67;84.49;94831.66;5131469;27;20197;-71
2022/09/22 01:24:58;;;;;;;1.35;0.85;;;;;;;7.69;84.53;94834.03;5118254;27;20246;-71
2022/09/22 01:27:45;;;;;;;0.77;0.77;;;;;;;7.65;84.83;94833.88;5131178;27;20644;-73
2022/09/22 01:30:19;;;;;;;2.92;2.42;;;;;;;7.65;84.90;94827.69;5131588;27;20204;-75
2022/09/22 01:33:12;;;;;;;2.72;2.25;;;;;;;7.54;85.21;94832.47;5130623;27;20195;-71
2022/09/22 01:35:48;;;;;;;3.85;2.63;;;;;;;7.51;85.62;94830.41;5131009;27;20215;-72
2022/09/22 01:38:25;;;;;;;2.92;2.53;;;;;;;7.48;85.67;94833.72;5131217;27;20193;-72
2022/09/22 01:40:59;;;;;;;3.47;2.65;;;;;;;7.39;86.13;94827.41;5131033;27;20891;-72
2022/09/22 01:43:35;;;;;;;3.90;3.10;;;;;;;7.35;86.19;94829.13;5130589;27;20703;-72
2022/09/22 01:46:10;;;;;;;3.08;2.70;;;;;;;7.31;86.45;94833.53;5131342;27;20201;-72
2022/09/22 01:48:42;;;;;;;3.15;2.50;;;;;;;7.28;86.70;94839.50;5130883;27;20240;-73
2022/09/22 01:51:14;;;;;;;4.03;2.92;;;;;;;7.27;86.88;94832.53;5130604;27;20613;-72
2022/09/22 01:53:45;;;;;;;1.40;0.95;;;;;;;7.26;86.87;94841.69;5117874;27;20197;-73
2022/09/22 01:56:14;;;;;;;2.03;1.23;;;;;;;7.23;87.16;94828.84;5130667;27;20207;-72
2022/09/22 01:58:47;;;;;;;4.50;1.33;;;;;;;7.37;86.93;94824.25;5130596;27;20201;-72
2022/09/22 02:01:19;;;;;;;0.20;0.20;;;;;;;7.38;86.95;94833.94;5130618;28;20201;-73
2022/09/22 02:03:52;;;;;;;1.20;0.70;;;;;;;7.44;87.39;94832.72;5130308;27;20224;-72
2022/09/22 02:06:23;;;;;;;0.50;0.50;;;;;;;7.40;87.48;94831.72;5131140;28;20192;-72
2022/09/22 02:08:55;;;;;;;1.17;1.08;;;;;;;7.37;87.48;94833.13;5130697;28;20270;-72
2022/09/22 02:11:23;;;;;;;1.90;1.00;;;;;;;7.43;87.09;94825.72;5130560;27;20406;-72
2022/09/22 02:13:50;;;;;;;2.13;1.30;;;;;;;7.45;87.12;94834.31;5130868;27;20283;-73
2022/09/22 02:16:21;;;;;;;1.08;0.98;;;;;;;7.36;87.27;94826.16;5130673;28;20224;-71
2022/09/22 02:18:51;;;;;;;4.20;0.57;;;;;;;7.36;87.31;94830.75;5130676;27;20266;-71
2022/09/22 02:21:19;;;;;;;0.68;0.68;;;;;;;7.30;87.89;94823.84;5116795;28;20707;-73
2022/09/22 02:23:47;;;;;;;3.47;2.83;;;;;;;7.24;88.22;94827.75;5130806;27;20254;-71
2022/09/22 02:26:22;;;;;;;4.00;2.95;;;;;;;7.23;88.22;94821.56;5130441;28;20197;-72
2022/09/22 02:28:52;;;;;;;0.80;0.80;;;;;;;7.22;88.20;94821.88;5130514;28;20202;-71
2022/09/22 02:31:23;;;;;;;0.95;0.85;;;;;;;7.28;87.87;94824.16;5130386;27;20655;-71
2022/09/22 02:33:51;;;;;;;1.20;0.88;;;;;;;7.21;88.11;94812.19;5130302;28;20554;-72
2022/09/22 02:36:34;;;;;;;1.17;1.10;;;;;;;7.17;88.44;94821.97;5130509;28;20250;-71
2022/09/22 02:39:08;;;;;;;1.02;0.85;;;;;;;7.14;88.87;94818.78;5117250;28;20193;-72
2022/09/22 02:41:44;;;;;;;0.50;0.50;;;;;;;7.16;88.93;94820.38;5130549;27;20281;-75
2022/09/22 02:44:16;;;;;;;1.05;0.60;;;;;;;7.23;88.92;94836.94;5130917;27;20200;-73
2022/09/22 02:46:50;;;;;;;1.23;0.90;;;;;;;7.19;89.10;94839.44;5130563;28;20246;-72
2022/09/22 02:49:18;;;;;;;1.65;0.68;;;;;;;7.21;89.19;94833.75;5130252;28;20229;-72
2022/09/22 02:51:48;;;;;;;1.55;0.70;;;;;;;7.29;89.02;94835.72;5129947;27;20197;-72
2022/09/22 02:54:15;;;;;;;1.08;0.98;;;;;;;7.28;88.78;94834.91;5130653;27;20258;-74
2022/09/22 02:56:42;;;;;;;1.48;0.85;;;;;;;7.41;88.86;94838.69;5133881;27;20205;-72
2022/09/22 02:59:09;;;;;;;1.00;0.95;;;;;;;7.46;88.75;94839.41;5134154;27;20254;-72
2022/09/22 03:01:36;;;;;;;1.33;1.23;;;;;;;7.57;88.53;94842.66;5134236;27;20285;-72
2022/09/22 03:04:04;;;;;;;2.00;1.08;;;;;;;7.64;88.19;94848.44;5133785;27;20205;-72
2022/09/22 03:06:31;;;;;;;0.73;0.73;;;;;;;7.63;88.42;94832.56;5133202;27;20245;-72
2022/09/22 03:08:58;;;;;;;1.13;1.02;;;;;;;7.68;88.07;94835.94;5133562;27;20201;-74
2022/09/22 03:11:26;;;;;;;1.27;1.17;;;;;;;7.71;87.96;94839.94;5133470;27;20265;-74
2022/09/22 03:13:53;;;;;;;1.15;0.82;;;;;;;7.69;88.08;94836.75;5133807;27;20197;-73
2022/09/22 03:16:19;;;;;;;1.42;1.33;;;;;;;7.67;87.96;94834.34;5133249;27;20281;-72
2022/09/22 03:18:46;;;;;;;2.10;1.27;;;;;;;7.72;87.62;94838.84;5133678;27;20559;-72
2022/09/22 03:21:14;;;;;;;1.25;0.73;;;;;;;7.75;87.66;94844.44;5133567;27;20232;-72
2022/09/22 03:23:41;;;;;;;0.77;0.77;;;;;;;7.76;87.64;94835.22;5133515;27;20265;-72
2022/09/22 03:26:08;;;;;;;0.75;0.75;;;;;;;7.75;87.53;94844.44;5133147;27;20292;-72
2022/09/22 03:28:35;;;;;;;4.28;1.65;;;;;;;7.71;87.52;94832.63;5133190;27;20197;-74
2022/09/22 03:31:02;;;;;;;1.70;1.13;;;;;;;7.72;87.38;94833.44;5133572;27;20441;-72
2022/09/22 03:33:29;;;;;;;1.55;1.38;;;;;;;7.65;87.62;94836.56;5133586;27;20201;-72
2022/09/22 03:35:56;;;;;;;1.08;1.00;;;;;;;7.64;87.49;94834.16;5133238;27;20197;-74
2022/09/22 03:38:24;;;;;;;0.75;0.55;;;;;;;7.56;87.44;94835.66;5133626;27;20258;-72
2022/09/22 03:40:52;;;;;;;1.05;0.80;;;;;;;7.58;87.20;94838.88;5133531;27;20236;-72
2022/09/22 03:43:19;;;;;;;1.70;1.42;;;;;;;7.61;87.11;94843.66;5133801;27;20284;-71
2022/09/22 03:45:46;;;;;;;0.93;0.93;;;;;;;7.63;87.02;94844.16;5133174;27;20242;-72
2022/09/22 03:48:13;;;;;;;2.10;1.48;;;;;;;7.61;87.10;94842.88;5133176;27;20286;-72
2022/09/22 03:50:40;;;;;;;1.02;0.82;;;;;;;7.64;86.99;94843.06;5132964;27;20193;-72
2022/09/22 03:53:06;;;;;;;5.20;1.63;;;;;;;7.66;86.93;94827.34;5133041;27;20250;-72
2022/09/22 03:55:35;;;;;;;1.35;1.05;;;;;;;7.69;87.15;94829.44;5133435;27;20595;-72
2022/09/22 03:58:03;;;;;;;1.23;1.05;;;;;;;7.70;87.32;94839.13;5132734;27;20583;-72
2022/09/22 04:00:30;;;;;;;3.00;1.17;;;;;;;7.70;87.15;94841.81;5133132;27;20247;-73
2022/09/22 04:02:57;;;;;;;1.42;1.30;;;;;;;7.72;87.05;94845.03;5132540;27;20610;-72
2022/09/22 04:05:24;;;;;;;2.30;1.55;;;;;;;7.75;86.98;94844.44;5132794;27;20320;-71
2022/09/22 04:07:51;;;;;;;1.92;1.58;;;;;;;7.83;86.66;94851.78;5131855;27;20722;-72
2022/09/22 04:10:18;;;;;;;2.08;1.15;;;;;;;7.88;86.30;94842.00;5132819;27;20257;-72
2022/09/22 04:12:47;;;;;;;1.73;1.30;;;;;;;7.89;86.13;94848.97;5132443;27;20206;-71
2022/09/22 04:15:14;;;;;;;0.55;0.55;;;;;;;7.88;86.28;94853.56;5132772;27;20253;-72
2022/09/22 04:17:40;;;;;;;0.80;0.80;;;;;;;7.91;86.00;94841.38;5132469;27;20266;-72
2022/09/22 04:20:10;;;;;;;0.93;0.77;;;;;;;7.90;85.60;94845.19;5133345;27;20273;-76
2022/09/22 04:22:37;;;;;;;0.32;0.32;;;;;;;7.93;85.69;94849.94;5133343;27;20212;-73
2022/09/22 04:25:04;;;;;;;1.25;0.80;;;;;;;7.99;85.84;94851.44;5132946;27;20197;-72
2022/09/22 04:27:31;;;;;;;1.83;1.27;;;;;;;7.95;85.61;94853.13;5133706;27;20205;-73
2022/09/22 04:30:00;;;;;;;2.03;1.80;;;;;;;7.98;85.24;94847.13;5132347;27;20205;-73
2022/09/22 04:32:27;;;;;;;0.57;0.57;;;;;;;8.05;85.06;94859.13;5119165;27;20199;-72
2022/09/22 04:34:53;;;;;;;0.77;0.77;;;;;;;8.05;85.00;94852.91;5132420;27;20197;-72
2022/09/22 04:37:20;;;;;;;1.85;1.15;;;;;;;8.02;85.02;94856.22;5132516;27;20205;-73
2022/09/22 04:39:47;;;;;;;1.38;1.20;;;;;;;8.07;85.02;94851.47;5131676;27;20732;-73
2022/09/22 04:42:14;;;;;;;1.02;0.80;;;;;;;8.15;84.98;94848.06;5132010;27;20232;-72
2022/09/22 04:44:41;;;;;;;2.03;1.08;;;;;;;8.28;84.17;94851.00;5132237;27;20201;-72
2022/09/22 04:47:09;;;;;;;2.15;0.95;;;;;;;8.37;83.90;94851.88;5131866;27;20204;-71
2022/09/22 04:49:36;;;;;;;0.60;0.60;;;;;;;8.36;83.76;94853.78;5131666;27;20237;-73
2022/09/22 04:52:03;;;;;;;3.22;1.25;;;;;;;8.36;83.71;94847.59;5132055;27;20205;-72
2022/09/22 04:54:30;;;;;;;1.58;1.23;;;;;;;8.36;83.78;94851.09;5131769;27;20228;-71
2022/09/22 04:56:57;;;;;;;2.50;1.33;;;;;;;8.36;84.01;94859.19;5131563;27;20803;-72
2022/09/22 04:59:24;;;;;;;0.65;0.65;;;;;;;8.39;83.94;94853.19;5131937;27;20197;-71
2022/09/22 05:01:51;;;;;;;0.98;0.80;;;;;;;8.56;83.43;94857.91;5131089;27;20229;-73
2022/09/22 05:04:19;;;;;;;2.58;1.65;;;;;;;8.45;83.34;94848.47;5131485;27;20600;-75
2022/09/22 05:06:46;;;;;;;1.02;0.93;;;;;;;8.43;83.71;94854.16;5131334;27;20219;-71
2022/09/22 05:09:14;;;;;;;2.47;1.65;;;;;;;8.49;83.59;94847.53;5131454;27;20205;-72
2022/09/22 05:11:41;;;;;;;1.10;0.85;;;;;;;8.57;83.46;94847.91;5131835;27;20704;-72
2022/09/22 05:14:07;;;;;;;0.47;0.47;;;;;;;8.65;83.14;94857.94;5132090;27;20201;-72
2022/09/22 05:16:34;;;;;;;0.65;0.65;;;;;;;8.65;82.86;94855.22;5130555;27;20233;-72
2022/09/22 05:19:01;;;;;;;1.33;1.10;;;;;;;8.83;82.43;94862.34;5129703;27;20278;-71
2022/09/22 05:21:29;;;;;;;1.73;1.13;;;;;;;8.93;81.88;94859.34;5130489;27;20683;-71
2022/09/22 05:23:56;;;;;;;3.03;1.58;;;;;;;9.19;80.72;94859.44;5130403;27;20577;-72
2022/09/22 05:26:23;;;;;;;1.48;1.02;;;;;;;9.27;80.58;94856.78;5130422;27;20612;-74
2022/09/22 05:28:50;;;;;;;0.75;0.75;;;;;;;9.17;80.54;94856.25;5130913;27;20660;-73
2022/09/22 05:31:17;;;;;;;2.53;1.60;;;;;;;9.38;80.32;94853.78;5130828;27;20215;-71
2022/09/22 05:33:44;;;;;;;1.23;1.13;;;;;;;9.39;79.87;94853.47;5131248;27;20228;-72
2022/09/22 05:36:11;;;;;;;0.82;0.73;;;;;;;9.49;79.82;94865.91;5130993;27;20197;-72
2022/09/22 05:38:39;;;;;;;1.55;1.45;;;;;;;9.73;78.31;94863.56;5129886;27;20291;-73
2022/09/22 05:41:06;;;;;;;1.30;1.13;;;;;;;10.11;77.41;94857.56;5129108;27;20309;-72
2022/09/22 05:43:33;;;;;;;2.67;1.80;;;;;;;10.39;76.10;94864.25;5129667;27;20262;-72
2022/09/22 05:46:03;;;;;;;1.55;1.38;;;;;;;9.96;76.89;94851.50;5126645;27;20655;-82
2022/09/22 05:48:30;;;;;;;1.23;1.13;;;;;;;9.73;78.53;94851.94;5129467;27;20768;-72
2022/09/22 05:50:57;;;;;;;1.77;1.33;;;;;;;10.43;76.66;94859.78;5129858;27;20238;-71
2022/09/22 05:53:23;;;;;;;1.27;1.17;;;;;;;10.81;73.67;94848.22;5129712;27;20269;-74
2022/09/22 05:55:52;;;;;;;1.10;0.40;;;;;;;10.64;73.09;94855.31;5129519;27;20656;-73
2022/09/22 05:58:19;;;;;;;1.17;0.88;;;;;;;10.26;74.30;94854.38;5129454;28;20567;-72
2022/09/22 06:00:46;;;;;;;2.47;1.52;;;;;;;10.02;74.67;94851.34;5129517;28;20225;-72
2022/09/22 06:03:12;;;;;;;1.88;1.17;;;;;;;9.87;75.45;94849.88;5129334;27;20273;-76
2022/09/22 06:05:44;;;;;;;1.38;1.25;;;;;;;10.11;75.81;94857.56;5129377;28;20196;-76
2022/09/22 06:08:11;;;;;;;1.30;1.20;;;;;;;11.48;71.42;94844.78;5125623;28;20245;-72
2022/09/22 06:10:39;;;;;;;4.88;2.20;;;;;;;13.76;63.73;94835.41;5129532;28;20659;-73
2022/09/22 06:13:09;;;;;;;1.55;1.05;;;;;;;13.58;63.16;94834.84;5129569;28;20188;-75
2022/09/22 06:15:37;;;;;;;2.15;1.42;;;;;;;13.04;64.81;94834.22;5130073;28;20220;-73
2022/09/22 06:18:06;;;;;;;1.45;1.17;;;;;;;13.49;62.80;94843.13;5129531;28;20197;-72
2022/09/22 06:20:34;;;;;;;1.50;0.93;;;;;;;14.08;61.27;94842.56;5129561;28;20256;-72
2022/09/22 06:23:01;;;;;;;0.93;0.93;;;;;;;13.16;62.60;94843.22;5126938;28;20193;-77
2022/09/22 06:25:28;;;;;;;1.73;1.20;;;;;;;12.06;66.54;94850.16;5129265;28;20197;-73
2022/09/22 06:28:00;;;;;;;1.00;0.93;;;;;;;13.16;63.93;94842.41;5129160;28;20574;-72
2022/09/22 06:30:29;;;;;;;1.05;1.02;;;;;;;13.88;60.95;94836.16;5131023;27;20193;-72
2022/09/22 06:32:57;;;;;;;1.00;1.00;;;;;;;13.11;62.58;94856.22;5133667;27;20265;-81
2022/09/22 06:35:24;;;;;;;1.63;1.00;;;;;;;13.72;61.83;94842.66;5132962;27;20208;-72
2022/09/22 06:37:56;;;;;;;0.70;0.70;;;;;;;14.23;60.68;94855.50;5133231;27;20238;-72
2022/09/22 06:40:23;;;;;;;1.20;0.98;;;;;;;13.44;61.69;94848.78;5131950;27;20189;-77
2022/09/22 06:42:50;;;;;;;3.67;1.90;;;;;;;13.61;61.75;94838.81;5133314;27;20201;-74
2022/09/22 06:45:17;;;;;;;1.38;1.08;;;;;;;14.04;60.54;94841.69;5132853;27;20250;-73
2022/09/22 06:47:46;;;;;;;1.33;1.02;;;;;;;13.83;61.16;94841.03;5132900;27;20342;-73
2022/09/22 06:50:13;;;;;;;2.47;1.35;;;;;;;13.66;62.11;94838.59;5132666;27;20316;-73
2022/09/22 06:52:39;;;;;;;1.25;0.90;;;;;;;13.45;63.10;94849.56;5132707;27;20628;-72
2022/09/22 06:55:09;;;;;;;2.13;1.20;;;;;;;13.91;61.29;94840.13;5132866;27;20254;-73
2022/09/22 06:57:36;;;;;;;2.20;1.67;;;;;;;13.37;63.48;94848.56;5132891;27;20200;-73
2022/09/22 07:00:05;;;;;;;1.08;1.00;;;;;;;12.81;64.52;94848.22;5130422;27;20190;-77
2022/09/22 07:02:32;;;;;;;1.85;1.45;;;;;;;12.60;65.67;94842.03;5132341;27;20707;-72
2022/09/22 07:05:01;;;;;;;1.70;1.20;;;;;;;12.91;64.72;94840.75;5132565;27;20246;-73
2022/09/22 07:07:29;;;;;;;3.45;1.35;;;;;;;12.70;64.92;94841.63;5132762;27;20276;-71
2022/09/22 07:09:56;;;;;;;2.03;1.27;;;;;;;12.94;65.34;94842.81;5132244;27;20197;-72
2022/09/22 07:12:24;;;;;;;0.45;0.45;;;;;;;13.30;63.88;94837.44;5132965;27;20343;-76
2022/09/22 07:14:51;;;;;;;0.82;0.82;;;;;;;12.78;64.76;94848.09;5132571;27;20197;-73
2022/09/22 07:17:19;;;;;;;2.28;1.00;;;;;;;12.68;65.36;94849.31;5127671;27;20244;-75
2022/09/22 07:19:46;;;;;;;0.75;0.63;;;;;;;12.93;64.18;94846.66;5132643;27;20236;-72
2022/09/22 07:22:15;;;;;;;1.85;0.65;;;;;;;12.48;66.01;94844.69;5132832;27;20275;-73
2022/09/22 07:24:42;;;;;;;2.58;1.38;;;;;;;12.38;66.10;94845.13;5132514;27;20228;-74
2022/09/22 07:27:09;;;;;;;1.20;0.93;;;;;;;12.08;67.94;94852.56;5132415;27;20201;-72
2022/09/22 07:29:37;;;;;;;0.88;0.80;;;;;;;12.48;66.76;94844.69;5132666;27;20209;-73
2022/09/22 07:32:04;;;;;;;4.75;2.25;;;;;;;11.98;67.53;94853.75;5132331;27;20785;-72
2022/09/22 07:34:31;;;;;;;1.85;0.95;;;;;;;12.35;66.79;94845.78;5132903;27;20209;-72
2022/09/22 07:36:59;;;;;;;1.10;1.00;;;;;;;12.41;65.90;94845.25;5132196;27;20276;-73
2022/09/22 07:39:27;;;;;;;5.25;2.13;;;;;;;12.31;66.47;94850.28;5132840;27;20300;-75
2022/09/22 07:41:54;;;;;;;1.27;1.08;;;;;;;12.74;66.17;94842.53;5131769;27;20228;-74
2022/09/22 07:47:05;;;;;;;1.45;1.35;;;;;;;12.31;66.57;94850.28;5111416;28;20545;-73
2022/09/22 07:49:32;;;;;;;1.98;1.50;;;;;;;12.02;67.13;94857.41;5125638;27;20775;-70
2022/09/22 07:51:59;;;;;;;1.17;0.90;;;;;;;12.01;66.90;94852.31;5131805;27;20258;-77
2022/09/22 07:54:28;;;;;;;1.63;1.05;;;;;;;12.04;66.95;94846.97;5128900;27;20301;-75
2022/09/22 07:56:57;;;;;;;2.45;1.58;;;;;;;12.57;66.24;94850.06;5131696;27;20205;-73
2022/09/22 07:59:24;;;;;;;1.33;1.15;;;;;;;12.96;64.53;94856.88;5131287;27;20266;-71
2022/09/22 08:01:51;;;;;;;2.30;1.63;;;;;;;13.32;63.41;94850.72;5131600;27;20224;-72
2022/09/22 08:04:21;;;;;;;1.58;1.27;;;;;;;13.24;63.45;94857.84;5131740;27;20328;-71
2022/09/22 08:06:50;;;;;;;0.90;0.70;;;;;;;12.88;64.30;94857.72;5128894;27;20189;-72
2022/09/22 08:09:18;;;;;;;4.00;2.50;;;;;;;13.20;63.49;94854.22;5131268;27;20219;-76
2022/09/22 08:11:48;;;;;;;2.72;1.85;;;;;;;12.87;62.45;94846.06;5128513;27;20213;-72
2022/09/22 08:14:17;;;;;;;1.27;0.88;;;;;;;13.79;61.56;94848.31;5131700;27;20215;-72
2022/09/22 08:16:45;;;;;;;0.88;0.85;;;;;;;12.82;61.86;94849.81;5131190;27;20221;-78
2022/09/22 08:19:13;;;;;;;2.08;1.35;;;;;;;12.64;62.79;94853.81;5131543;27;20203;-74
2022/09/22 08:21:42;;;;;;;1.20;0.93;;;;;;;13.27;61.46;94854.44;5131380;27;20221;-72
2022/09/22 08:24:10;;;;;;;1.88;1.27;;;;;;;13.22;61.93;94851.94;5131099;27;20246;-72
2022/09/22 08:26:39;;;;;;;1.45;1.23;;;;;;;13.15;61.71;94849.78;5131048;27;20230;-69
2022/09/22 08:29:07;;;;;;;0.32;0.30;;;;;;;13.00;61.31;94846.88;5131403;27;20205;-72
2022/09/22 08:31:35;;;;;;;2.00;1.52;;;;;;;13.07;62.42;94845.22;5131516;27;20245;-71
2022/09/22 08:34:04;;;;;;;0.93;0.82;;;;;;;13.53;58.90;94835.06;5131770;27;20587;-73
2022/09/22 08:36:31;;;;;;;1.88;0.95;;;;;;;13.82;57.22;94834.00;5131660;27;20285;-72
2022/09/22 08:38:59;;;;;;;0.85;0.85;;;;;;;14.20;55.60;94826.22;5132106;27;20205;-71
2022/09/22 08:41:37;;;;;;;0.65;0.65;;;;;;;13.73;58.99;94834.13;5131413;27;20281;-73
2022/09/22 08:44:17;;;;;;;2.35;1.20;;;;;;;13.91;58.63;94833.91;5132119;27;20196;-72
2022/09/22 08:46:45;;;;;;;0.65;0.57;;;;;;;14.15;57.60;94833.84;5131019;27;20653;-73
2022/09/22 08:52:10;;;;;;;0.88;0.88;;;;;;;14.29;58.08;94822.56;5117995;27;20200;-72
2022/09/22 08:54:37;;;;;;;2.63;1.95;;;;;;;14.00;58.16;94831.81;5130919;27;20277;-73
2022/09/22 08:57:32;;;;;;;2.00;1.80;;;;;;;13.77;57.43;94824.16;5130592;27;20193;-72
2022/09/22 09:00:04;;;;;;;1.23;0.95;;;;;;;14.12;58.39;94818.19;5129905;27;20197;-72
2022/09/22 09:02:37;;;;;;;1.17;0.98;;;;;;;14.68;56.54;94824.47;5130332;27;20766;-71
2022/09/22 09:05:39;;;;;;;6.25;1.05;;;;;;;14.70;55.60;94818.66;5131086;27;20635;-71
2022/09/22 09:08:15;;;;;;;1.02;0.73;;;;;;;15.34;52.98;94817.56;5130213;27;20195;-73
2022/09/22 09:10:50;;;;;;;1.38;1.15;;;;;;;15.11;52.15;94815.47;5130298;27;20221;-72
2022/09/22 09:13:39;;;;;;;1.48;1.13;;;;;;;15.99;51.78;94805.06;5130381;27;20235;-72
2022/09/22 09:16:24;;;;;;;0.90;0.80;;;;;;;15.90;50.46;94818.16;5130326;27;20289;-72
2022/09/22 09:18:57;;;;;;;1.40;0.70;;;;;;;15.47;51.79;94816.31;5129782;27;20196;-73
2022/09/22 09:21:25;;;;;;;1.73;1.40;;;;;;;14.75;52.67;94808.31;5130840;27;20189;-73
2022/09/22 09:23:57;;;;;;;0.70;0.70;;;;;;;14.17;54.72;94813.28;5130436;27;20287;-74
2022/09/22 09:26:24;;;;;;;0.82;0.77;;;;;;;14.26;54.22;94806.88;5130907;27;20216;-72
2022/09/22 09:28:54;;;;;;;1.80;1.00;;;;;;;14.91;53.54;94808.31;5130749;27;20197;-73
2022/09/22 09:31:32;;;;;;;1.13;0.93;;;;;;;15.23;51.88;94806.41;5130424;27;20261;-70
2022/09/22 09:34:01;;;;;;;1.40;1.30;;;;;;;15.02;51.48;94806.66;5130249;27;20566;-73
2022/09/22 09:36:32;;;;;;;0.57;0.57;;;;;;;14.87;50.95;94805.50;5130595;27;20214;-72
2022/09/22 09:39:03;;;;;;;0.70;0.63;;;;;;;15.41;52.28;94799.44;5117106;27;20201;-72
2022/09/22 09:41:33;;;;;;;1.67;1.58;;;;;;;15.46;50.00;94804.63;5130162;27;20236;-71
2022/09/22 09:44:02;;;;;;;1.33;1.02;;;;;;;15.62;48.89;94802.69;5130993;27;20270;-70
2022/09/22 09:46:42;;;;;;;0.90;0.80;;;;;;;15.82;50.59;94802.75;5129624;27;20227;-72
2022/09/22 09:49:13;;;;;;;1.73;1.25;;;;;;;16.23;48.67;94791.16;5122890;27;20237;-72
2022/09/22 09:51:43;;;;;;;0.82;0.60;;;;;;;16.27;46.88;94789.25;5126766;27;20561;-74
2022/09/22 09:54:14;;;;;;;0.68;0.68;;;;;;;15.85;47.74;94786.41;5129288;27;20262;-71
2022/09/22 09:57:06;;;;;;;1.10;0.73;;;;;;;16.45;46.42;94778.69;5129491;27;20257;-72
2022/09/22 10:02:24;;;;;;;1.40;1.05;;;;;;;17.24;46.32;94769.97;5127952;28;20308;-72
2022/09/22 10:04:53;;;;;;;1.05;0.93;;;;;;;17.04;44.21;94772.78;5134240;27;20249;-73
2022/09/22 10:07:23;;;;;;;1.40;1.10;;;;;;;16.54;45.11;94771.06;5135260;27;20236;-72
2022/09/22 10:09:51;;;;;;;1.60;1.30;;;;;;;16.81;44.23;94763.75;5135276;27;20209;-71
2022/09/22 10:12:28;;;;;;;1.33;1.20;;;;;;;16.49;46.34;94768.63;5134953;27;20201;-72
2022/09/22 10:14:57;;;;;;;0.73;0.63;;;;;;;16.19;44.54;94754.75;5135889;27;20224;-73
2022/09/22 10:17:29;;;;;;;1.05;0.80;;;;;;;16.01;46.36;94767.25;5135725;27;20204;-71
2022/09/22 10:20:16;;;;;;;1.23;1.10;;;;;;;16.91;44.34;94763.19;5136030;27;20201;-72
2022/09/22 10:22:43;;;;;;;1.75;1.20;;;;;;;17.29;44.19;94758.72;5135286;27;20232;-71
2022/09/22 10:25:21;;;;;;;1.60;1.10;;;;;;;17.51;45.49;94751.63;5135360;27;20208;-72
2022/09/22 10:28:00;;;;;;;1.30;1.20;;;;;;;17.20;44.69;94752.72;5134693;27;20198;-73
2022/09/22 10:30:28;;;;;;;1.15;0.95;;;;;;;16.61;45.94;94754.00;5133834;27;20748;-72
2022/09/22 10:33:16;;;;;;;1.05;0.90;;;;;;;16.14;46.23;94760.50;5135024;27;20594;-73
2022/09/22 10:35:46;;;;;;;1.20;0.95;;;;;;;16.02;46.85;94766.09;5135637;27;20189;-72
2022/09/22 10:38:19;;;;;;;1.02;0.82;;;;;;;16.39;45.84;94752.03;5135042;27;20667;-73
2022/09/22 10:40:53;;;;;;;1.05;0.95;;;;;;;15.84;44.89;94754.03;5135165;27;20779;-74
2022/09/22 10:43:42;;;;;;;1.23;0.90;;;;;;;15.69;45.76;94743.94;5134781;27;20285;-71
2022/09/22 10:46:39;;;;;;;1.05;0.95;;;;;;;15.95;45.03;94739.44;5135652;27;20200;-71
2022/09/22 10:49:12;;;;;;;0.73;0.73;;;;;;;15.92;45.95;94742.09;5133313;27;20610;-71
2022/09/22 10:52:04;;;;;;;0.93;0.80;;;;;;;16.65;43.21;94738.47;5135455;27;20197;-72
2022/09/22 10:54:53;;;;;;;1.33;0.90;;;;;;;16.70;43.81;94740.91;5136330;27;20197;-74
2022/09/22 10:57:34;;;;;;;1.10;0.90;;;;;;;16.65;44.03;94743.94;5119824;27;20193;-72
2022/09/22 11:00:11;;;;;;;1.63;1.10;;;;;;;17.57;42.71;94734.50;5134540;27;20284;-73
2022/09/22 11:03:03;;;;;;;1.17;1.08;;;;;;;17.71;42.84;94723.00;5136521;27;20315;-73
2022/09/22 11:14:31;;;;;;;2.03;1.50;;;;;;;16.63;44.17;94729.84;5134567;27;20254;-71
2022/09/22 11:17:09;;;;;;;1.08;0.98;;;;;;;16.28;44.03;94729.91;5131371;27;20239;-72
2022/09/22 11:19:57;;;;;;;2.17;0.90;;;;;;;16.32;43.73;94720.63;5131455;27;20652;-72
2022/09/22 11:22:53;;;;;;;0.77;0.77;;;;;;;16.85;44.02;94707.16;5131652;27;20319;-72
2022/09/22 11:25:30;;;;;;;2.30;1.80;;;;;;;17.03;43.86;94705.53;5131871;27;20246;-73
2022/09/22 11:28:12;;;;;;;1.50;1.20;;;;;;;17.30;44.28;94706.34;5121344;27;20562;-73
2022/09/22 11:30:45;;;;;;;1.08;0.98;;;;;;;16.85;44.08;94709.91;5130741;27;20208;-73
2022/09/22 11:33:38;;;;;;;1.35;0.90;;;;;;;17.12;44.01;94696.25;5132226;27;20283;-72
2022/09/22 11:36:20;;;;;;;0.80;0.80;;;;;;;17.97;43.64;94694.75;5121859;27;20548;-72
2022/09/22 11:39:13;;;;;;;0.93;0.82;;;;;;;18.02;41.62;94691.69;5132270;27;20201;-72
2022/09/22 11:41:44;;;;;;;0.70;0.70;;;;;;;17.84;39.12;94682.44;5131598;27;20282;-73
2022/09/22 11:44:35;;;;;;;1.00;0.80;;;;;;;17.89;39.83;94684.88;5132185;27;20281;-72
2022/09/22 11:47:40;;;;;;;1.13;0.80;;;;;;;16.70;41.83;94697.13;5132114;27;20212;-73
2022/09/22 11:50:49;;;;;;;0.80;0.73;;;;;;;16.96;41.94;94694.44;5131476;27;20233;-73
2022/09/22 11:53:33;;;;;;;1.10;0.90;;;;;;;16.70;44.86;94713.53;5131563;27;20213;-72
2022/09/22 11:56:18;;;;;;;1.13;0.88;;;;;;;15.77;49.32;94693.75;5131459;27;20644;-73
2022/09/22 11:58:47;;;;;;;1.65;0.95;;;;;;;15.32;51.27;94706.00;5132133;27;20246;-74
2022/09/22 12:01:20;;;;;;;1.20;1.10;;;;;;;15.45;51.85;94699.28;5131290;27;20293;-73
2022/09/22 12:03:50;;;;;;;9.80;1.00;;;;;;;15.39;51.82;94711.66;5131661;27;20217;-73
2022/09/22 12:06:21;;;;;;;1.05;0.50;;;;;;;15.45;51.83;94707.47;5131830;27;20285;-72
2022/09/22 12:08:53;;;;;;;2.55;0.45;;;;;;;14.97;52.65;94711.44;5131482;27;20205;-80
2022/09/22 12:11:27;;;;;;;1.17;1.00;;;;;;;14.49;53.04;94712.56;5131565;27;20228;-78
2022/09/22 12:13:56;;;;;;;0.57;0.55;;;;;;;14.37;52.90;94726.22;5131331;27;20217;-75